Main page
METAR-TAF:

METAR-TAF

Airports :

Koror, Babelthuap Island, Palau

Roman Tmetuchl International Airport

latitude: 07-22N, longitude: 134-32E, elevation: 54 m

Current weather observation

The report was made 54 minutes ago, at 01:50 UTC
Wind 7 kt from the East/Northeast with gusts up to 16 kt
Temperature 28°C
Humidity 79%
Pressure 1013 hPa
Visibility: 22.5 km
Broken clouds at a height of 1500 ft, Cumulonimbus.
Broken clouds at a height of 11000 ft
Overcast at a height of 30000 ft

METAR: PTRO 300150Z 06007G16KT 14SM BKN015CB BKN110 OVC300 28/24 A2991 RMK CB VC ALQDS

Time: 11:44 (02:44 UTC)

Forecast

The report was made 3 hours and 12 minutes ago, at 23:32 UTC
Forecast valid from 30 at 00 UTC to 30 at 24 UTC
Wind 7 kt from the East/Northeast
Visibility: 10 km
Scattered clouds at a height of 1600 ft
Broken clouds at a height of 11000 ft
showers in vicinity

TAF: PTRO 292332Z 3000/3024 07007KT P6SM VCSH SCT016 BKN110

Weather observations and forecasts of more than 4000 airports (METAR and TAF reports).

The available stations are represented by yellow and red dots on the map.

Hover mouse over dot to see the name of the station.

Then click to see weather observations and forecasts.

To change the map : click on the green buttons with a black cross to zoom in, on the green button with a dash to zoom out, or on the green arrows for adjacent maps.


METAR-TAF: